sensor_id;sensor_type;location;lat;lon;timestamp;P1;durP1;ratioP1;P2;durP2;ratioP2
27758;SDS011;15148;48.972;12.794;2023-03-08T00:01:36;8.00;;;5.25;;
27758;SDS011;15148;48.972;12.794;2023-03-08T00:06:38;7.43;;;4.85;;
27758;SDS011;15148;48.972;12.794;2023-03-08T00:11:40;7.22;;;4.75;;
27758;SDS011;15148;48.972;12.794;2023-03-08T00:16:41;7.45;;;4.13;;
27758;SDS011;15148;48.972;12.794;2023-03-08T00:21:43;6.38;;;4.75;;
27758;SDS011;15148;48.972;12.794;2023-03-08T00:26:45;7.35;;;4.72;;
27758;SDS011;15148;48.972;12.794;2023-03-08T00:31:47;7.78;;;5.57;;
27758;SDS011;15148;48.972;12.794;2023-03-08T00:36:49;7.47;;;5.15;;
27758;SDS011;15148;48.972;12.794;2023-03-08T00:41:51;7.25;;;5.15;;
27758;SDS011;15148;48.972;12.794;2023-03-08T00:46:53;7.95;;;5.78;;
27758;SDS011;15148;48.972;12.794;2023-03-08T00:51:54;9.50;;;6.35;;
27758;SDS011;15148;48.972;12.794;2023-03-08T00:56:56;9.15;;;6.38;;
27758;SDS011;15148;48.972;12.794;2023-03-08T01:01:59;8.68;;;5.55;;
27758;SDS011;15148;48.972;12.794;2023-03-08T01:07:01;9.10;;;5.53;;
27758;SDS011;15148;48.972;12.794;2023-03-08T01:12:03;9.18;;;5.20;;
27758;SDS011;15148;48.972;12.794;2023-03-08T01:17:05;7.03;;;5.18;;
27758;SDS011;15148;48.972;12.794;2023-03-08T01:22:07;8.52;;;5.75;;
27758;SDS011;15148;48.972;12.794;2023-03-08T01:27:08;7.30;;;5.10;;
27758;SDS011;15148;48.972;12.794;2023-03-08T01:32:10;7.78;;;5.72;;
27758;SDS011;15148;48.972;12.794;2023-03-08T01:37:12;7.65;;;5.70;;
27758;SDS011;15148;48.972;12.794;2023-03-08T01:42:15;8.65;;;5.93;;
27758;SDS011;15148;48.972;12.794;2023-03-08T01:47:24;11.20;;;6.18;;
27758;SDS011;15148;48.972;12.794;2023-03-08T01:53:00;8.23;;;5.82;;
27758;SDS011;15148;48.972;12.794;2023-03-08T01:58:02;8.23;;;6.10;;
27758;SDS011;15148;48.972;12.794;2023-03-08T02:03:07;8.48;;;5.28;;
27758;SDS011;15148;48.972;12.794;2023-03-08T02:08:12;9.38;;;6.35;;
27758;SDS011;15148;48.972;12.794;2023-03-08T02:13:15;8.18;;;5.93;;
27758;SDS011;15148;48.972;12.794;2023-03-08T02:18:20;9.65;;;6.40;;
27758;SDS011;15148;48.972;12.794;2023-03-08T02:23:23;8.55;;;6.43;;
27758;SDS011;15148;48.972;12.794;2023-03-08T02:28:26;8.60;;;5.47;;
27758;SDS011;15148;48.972;12.794;2023-03-08T02:33:28;9.68;;;5.90;;
27758;SDS011;15148;48.972;12.794;2023-03-08T02:38:32;10.43;;;6.03;;
27758;SDS011;15148;48.972;12.794;2023-03-08T02:43:34;8.55;;;5.50;;
27758;SDS011;15148;48.972;12.794;2023-03-08T02:48:36;9.40;;;6.10;;
27758;SDS011;15148;48.972;12.794;2023-03-08T02:53:38;8.50;;;5.63;;
27758;SDS011;15148;48.972;12.794;2023-03-08T02:58:40;7.57;;;5.75;;
27758;SDS011;15148;48.972;12.794;2023-03-08T03:03:42;8.10;;;6.18;;
27758;SDS011;15148;48.972;12.794;2023-03-08T03:08:45;7.13;;;5.82;;
27758;SDS011;15148;48.972;12.794;2023-03-08T03:13:52;8.68;;;6.30;;
27758;SDS011;15148;48.972;12.794;2023-03-08T03:19:03;7.85;;;5.45;;
27758;SDS011;15148;48.972;12.794;2023-03-08T03:24:06;8.73;;;6.43;;
27758;SDS011;15148;48.972;12.794;2023-03-08T03:29:16;8.90;;;5.75;;
27758;SDS011;15148;48.972;12.794;2023-03-08T03:34:21;8.73;;;5.93;;
27758;SDS011;15148;48.972;12.794;2023-03-08T03:39:24;8.82;;;6.10;;
27758;SDS011;15148;48.972;12.794;2023-03-08T03:44:30;8.90;;;6.30;;
27758;SDS011;15148;48.972;12.794;2023-03-08T03:49:32;12.27;;;7.40;;
27758;SDS011;15148;48.972;12.794;2023-03-08T03:54:34;11.82;;;6.03;;
27758;SDS011;15148;48.972;12.794;2023-03-08T03:59:36;8.82;;;6.40;;
27758;SDS011;15148;48.972;12.794;2023-03-08T04:04:38;10.98;;;6.60;;
27758;SDS011;15148;48.972;12.794;2023-03-08T04:09:41;8.30;;;6.10;;
27758;SDS011;15148;48.972;12.794;2023-03-08T04:14:47;9.60;;;5.72;;
27758;SDS011;15148;48.972;12.794;2023-03-08T04:19:51;9.68;;;6.53;;
27758;SDS011;15148;48.972;12.794;2023-03-08T04:24:54;9.73;;;6.43;;
27758;SDS011;15148;48.972;12.794;2023-03-08T04:30:08;8.00;;;5.68;;
27758;SDS011;15148;48.972;12.794;2023-03-08T04:35:10;7.88;;;5.65;;
27758;SDS011;15148;48.972;12.794;2023-03-08T04:40:14;10.75;;;6.78;;
27758;SDS011;15148;48.972;12.794;2023-03-08T04:45:26;9.00;;;6.18;;
27758;SDS011;15148;48.972;12.794;2023-03-08T04:50:31;10.48;;;6.32;;
27758;SDS011;15148;48.972;12.794;2023-03-08T04:55:35;7.32;;;5.80;;
27758;SDS011;15148;48.972;12.794;2023-03-08T05:00:38;8.77;;;6.43;;
27758;SDS011;15148;48.972;12.794;2023-03-08T05:05:50;10.27;;;6.80;;
27758;SDS011;15148;48.972;12.794;2023-03-08T05:10:55;9.10;;;5.93;;
27758;SDS011;15148;48.972;12.794;2023-03-08T05:16:04;10.77;;;6.68;;
27758;SDS011;15148;48.972;12.794;2023-03-08T05:21:13;8.13;;;5.57;;
27758;SDS011;15148;48.972;12.794;2023-03-08T05:26:18;8.50;;;6.30;;
27758;SDS011;15148;48.972;12.794;2023-03-08T05:31:21;9.65;;;6.40;;
27758;SDS011;15148;48.972;12.794;2023-03-08T05:36:25;11.05;;;6.82;;
27758;SDS011;15148;48.972;12.794;2023-03-08T05:41:30;8.43;;;5.93;;
27758;SDS011;15148;48.972;12.794;2023-03-08T05:46:33;11.48;;;7.20;;
27758;SDS011;15148;48.972;12.794;2023-03-08T05:51:39;9.10;;;6.57;;
27758;SDS011;15148;48.972;12.794;2023-03-08T05:56:41;9.45;;;5.75;;
27758;SDS011;15148;48.972;12.794;2023-03-08T06:01:56;11.13;;;6.45;;
27758;SDS011;15148;48.972;12.794;2023-03-08T06:07:11;8.73;;;5.63;;
27758;SDS011;15148;48.972;12.794;2023-03-08T06:12:18;10.87;;;6.10;;
27758;SDS011;15148;48.972;12.794;2023-03-08T06:17:24;15.30;;;9.73;;
27758;SDS011;15148;48.972;12.794;2023-03-08T06:22:28;9.13;;;6.15;;
27758;SDS011;15148;48.972;12.794;2023-03-08T06:27:30;9.90;;;6.50;;
27758;SDS011;15148;48.972;12.794;2023-03-08T06:32:35;9.93;;;6.80;;
27758;SDS011;15148;48.972;12.794;2023-03-08T06:37:39;7.93;;;6.00;;
27758;SDS011;15148;48.972;12.794;2023-03-08T06:42:41;10.85;;;6.65;;
27758;SDS011;15148;48.972;12.794;2023-03-08T06:47:48;8.07;;;5.53;;
27758;SDS011;15148;48.972;12.794;2023-03-08T06:52:50;10.00;;;6.20;;
27758;SDS011;15148;48.972;12.794;2023-03-08T06:58:00;7.53;;;5.78;;
27758;SDS011;15148;48.972;12.794;2023-03-08T07:03:02;7.85;;;5.90;;
27758;SDS011;15148;48.972;12.794;2023-03-08T07:08:04;17.17;;;11.05;;
27758;SDS011;15148;48.972;12.794;2023-03-08T07:13:06;20.60;;;14.68;;
27758;SDS011;15148;48.972;12.794;2023-03-08T07:18:08;15.43;;;9.45;;
27758;SDS011;15148;48.972;12.794;2023-03-08T07:23:10;13.50;;;8.98;;
27758;SDS011;15148;48.972;12.794;2023-03-08T07:28:11;13.45;;;8.93;;
27758;SDS011;15148;48.972;12.794;2023-03-08T07:33:13;13.00;;;8.73;;
27758;SDS011;15148;48.972;12.794;2023-03-08T07:38:15;26.83;;;13.95;;
27758;SDS011;15148;48.972;12.794;2023-03-08T07:43:18;19.85;;;11.77;;
27758;SDS011;15148;48.972;12.794;2023-03-08T07:48:27;20.67;;;15.60;;
27758;SDS011;15148;48.972;12.794;2023-03-08T07:53:30;23.58;;;15.52;;
27758;SDS011;15148;48.972;12.794;2023-03-08T07:58:33;15.80;;;10.10;;
27758;SDS011;15148;48.972;12.794;2023-03-08T08:03:35;14.93;;;9.60;;
27758;SDS011;15148;48.972;12.794;2023-03-08T08:08:38;15.40;;;10.05;;
27758;SDS011;15148;48.972;12.794;2023-03-08T08:13:40;12.77;;;9.20;;
27758;SDS011;15148;48.972;12.794;2023-03-08T08:18:43;16.17;;;9.77;;
27758;SDS011;15148;48.972;12.794;2023-03-08T08:23:45;14.00;;;10.82;;
27758;SDS011;15148;48.972;12.794;2023-03-08T08:28:47;15.55;;;11.35;;
27758;SDS011;15148;48.972;12.794;2023-03-08T08:33:52;21.08;;;11.52;;
27758;SDS011;15148;48.972;12.794;2023-03-08T08:38:54;17.10;;;11.95;;
27758;SDS011;15148;48.972;12.794;2023-03-08T08:43:56;19.35;;;11.32;;
27758;SDS011;15148;48.972;12.794;2023-03-08T08:48:59;17.55;;;11.55;;
27758;SDS011;15148;48.972;12.794;2023-03-08T08:54:01;19.25;;;12.90;;
27758;SDS011;15148;48.972;12.794;2023-03-08T08:59:04;19.38;;;12.57;;
27758;SDS011;15148;48.972;12.794;2023-03-08T09:04:06;20.15;;;13.02;;
27758;SDS011;15148;48.972;12.794;2023-03-08T09:09:08;20.33;;;12.45;;
27758;SDS011;15148;48.972;12.794;2023-03-08T09:14:09;18.23;;;13.07;;
27758;SDS011;15148;48.972;12.794;2023-03-08T09:19:11;18.17;;;12.57;;
27758;SDS011;15148;48.972;12.794;2023-03-08T09:24:13;19.75;;;12.57;;
27758;SDS011;15148;48.972;12.794;2023-03-08T09:29:17;19.67;;;11.77;;
27758;SDS011;15148;48.972;12.794;2023-03-08T09:34:19;16.60;;;11.18;;
27758;SDS011;15148;48.972;12.794;2023-03-08T09:39:20;17.55;;;11.93;;
27758;SDS011;15148;48.972;12.794;2023-03-08T09:44:41;17.92;;;11.25;;
27758;SDS011;15148;48.972;12.794;2023-03-08T09:49:51;17.27;;;11.55;;
27758;SDS011;15148;48.972;12.794;2023-03-08T09:54:57;18.67;;;11.88;;
27758;SDS011;15148;48.972;12.794;2023-03-08T10:00:04;17.52;;;11.40;;
27758;SDS011;15148;48.972;12.794;2023-03-08T10:15:24;23.88;;;14.98;;
27758;SDS011;15148;48.972;12.794;2023-03-08T10:20:33;20.08;;;13.27;;
27758;SDS011;15148;48.972;12.794;2023-03-08T10:25:37;21.85;;;14.85;;
27758;SDS011;15148;48.972;12.794;2023-03-08T10:30:41;24.63;;;15.80;;
27758;SDS011;15148;48.972;12.794;2023-03-08T10:35:54;20.80;;;15.02;;
27758;SDS011;15148;48.972;12.794;2023-03-08T10:41:11;21.40;;;14.95;;
27758;SDS011;15148;48.972;12.794;2023-03-08T10:46:19;27.10;;;16.00;;
27758;SDS011;15148;48.972;12.794;2023-03-08T10:51:30;34.17;;;23.15;;
27758;SDS011;15148;48.972;12.794;2023-03-08T10:56:36;23.77;;;17.25;;
27758;SDS011;15148;48.972;12.794;2023-03-08T11:01:48;25.65;;;16.98;;
27758;SDS011;15148;48.972;12.794;2023-03-08T11:06:51;22.92;;;15.98;;
27758;SDS011;15148;48.972;12.794;2023-03-08T11:11:54;23.75;;;17.02;;
27758;SDS011;15148;48.972;12.794;2023-03-08T11:17:04;24.83;;;15.95;;
27758;SDS011;15148;48.972;12.794;2023-03-08T11:33:33;22.13;;;15.88;;
27758;SDS011;15148;48.972;12.794;2023-03-08T11:38:47;22.92;;;14.43;;
27758;SDS011;15148;48.972;12.794;2023-03-08T11:44:16;27.05;;;17.02;;
27758;SDS011;15148;48.972;12.794;2023-03-08T11:55:15;22.08;;;14.27;;
27758;SDS011;15148;48.972;12.794;2023-03-08T12:00:40;23.88;;;15.73;;
27758;SDS011;15148;48.972;12.794;2023-03-08T12:05:54;23.50;;;16.52;;
27758;SDS011;15148;48.972;12.794;2023-03-08T12:11:10;21.77;;;15.38;;
27758;SDS011;15148;48.972;12.794;2023-03-08T12:21:36;24.33;;;16.58;;
27758;SDS011;15148;48.972;12.794;2023-03-08T12:26:57;22.05;;;14.38;;
27758;SDS011;15148;48.972;12.794;2023-03-08T12:32:12;25.52;;;15.88;;
27758;SDS011;15148;48.972;12.794;2023-03-08T12:37:24;21.85;;;15.43;;
27758;SDS011;15148;48.972;12.794;2023-03-08T12:42:29;22.88;;;15.57;;
27758;SDS011;15148;48.972;12.794;2023-03-08T12:47:36;21.65;;;14.85;;
27758;SDS011;15148;48.972;12.794;2023-03-08T12:52:38;21.38;;;14.18;;
27758;SDS011;15148;48.972;12.794;2023-03-08T12:57:48;20.25;;;13.75;;
27758;SDS011;15148;48.972;12.794;2023-03-08T13:03:06;29.83;;;22.58;;
27758;SDS011;15148;48.972;12.794;2023-03-08T13:08:40;23.13;;;15.15;;
27758;SDS011;15148;48.972;12.794;2023-03-08T13:13:52;18.20;;;13.82;;
27758;SDS011;15148;48.972;12.794;2023-03-08T13:29:21;21.02;;;17.30;;
27758;SDS011;15148;48.972;12.794;2023-03-08T13:34:29;24.00;;;16.23;;
27758;SDS011;15148;48.972;12.794;2023-03-08T13:39:33;19.52;;;14.40;;
27758;SDS011;15148;48.972;12.794;2023-03-08T13:44:34;19.50;;;14.68;;
27758;SDS011;15148;48.972;12.794;2023-03-08T13:49:39;20.77;;;14.60;;
27758;SDS011;15148;48.972;12.794;2023-03-08T13:54:45;22.90;;;15.88;;
27758;SDS011;15148;48.972;12.794;2023-03-08T13:59:51;24.80;;;15.60;;
27758;SDS011;15148;48.972;12.794;2023-03-08T14:04:55;23.00;;;17.98;;
27758;SDS011;15148;48.972;12.794;2023-03-08T14:09:58;25.15;;;16.77;;
27758;SDS011;15148;48.972;12.794;2023-03-08T14:15:01;26.13;;;16.05;;
27758;SDS011;15148;48.972;12.794;2023-03-08T14:20:15;23.27;;;15.90;;
27758;SDS011;15148;48.972;12.794;2023-03-08T14:25:22;26.13;;;16.88;;
27758;SDS011;15148;48.972;12.794;2023-03-08T14:30:29;27.17;;;18.00;;
27758;SDS011;15148;48.972;12.794;2023-03-08T14:35:34;28.90;;;18.40;;
27758;SDS011;15148;48.972;12.794;2023-03-08T14:40:44;31.85;;;20.27;;
27758;SDS011;15148;48.972;12.794;2023-03-08T14:45:53;27.27;;;18.48;;
27758;SDS011;15148;48.972;12.794;2023-03-08T14:50:56;29.55;;;18.38;;
27758;SDS011;15148;48.972;12.794;2023-03-08T14:56:10;27.73;;;18.42;;
27758;SDS011;15148;48.972;12.794;2023-03-08T15:06:26;30.02;;;18.05;;
27758;SDS011;15148;48.972;12.794;2023-03-08T15:11:30;30.92;;;19.40;;
27758;SDS011;15148;48.972;12.794;2023-03-08T15:16:32;26.17;;;18.60;;
27758;SDS011;15148;48.972;12.794;2023-03-08T15:21:34;34.13;;;19.38;;
27758;SDS011;15148;48.972;12.794;2023-03-08T15:26:38;32.05;;;19.45;;
27758;SDS011;15148;48.972;12.794;2023-03-08T15:31:39;27.90;;;18.38;;
27758;SDS011;15148;48.972;12.794;2023-03-08T15:36:41;29.23;;;18.45;;
27758;SDS011;15148;48.972;12.794;2023-03-08T15:41:43;28.17;;;17.65;;
27758;SDS011;15148;48.972;12.794;2023-03-08T15:46:45;29.05;;;18.88;;
27758;SDS011;15148;48.972;12.794;2023-03-08T15:51:47;34.03;;;21.05;;
27758;SDS011;15148;48.972;12.794;2023-03-08T15:56:49;27.63;;;19.17;;
27758;SDS011;15148;48.972;12.794;2023-03-08T16:01:50;34.92;;;23.85;;
27758;SDS011;15148;48.972;12.794;2023-03-08T16:06:52;25.38;;;17.27;;
27758;SDS011;15148;48.972;12.794;2023-03-08T16:11:54;28.38;;;19.02;;
27758;SDS011;15148;48.972;12.794;2023-03-08T16:16:56;27.45;;;18.75;;
27758;SDS011;15148;48.972;12.794;2023-03-08T16:21:58;27.48;;;17.52;;
27758;SDS011;15148;48.972;12.794;2023-03-08T16:27:00;29.02;;;17.30;;
27758;SDS011;15148;48.972;12.794;2023-03-08T16:32:04;28.40;;;19.48;;
27758;SDS011;15148;48.972;12.794;2023-03-08T16:37:06;28.83;;;18.45;;
27758;SDS011;15148;48.972;12.794;2023-03-08T16:42:10;25.90;;;17.60;;
27758;SDS011;15148;48.972;12.794;2023-03-08T16:47:13;25.73;;;16.58;;
27758;SDS011;15148;48.972;12.794;2023-03-08T16:52:15;27.92;;;18.10;;
27758;SDS011;15148;48.972;12.794;2023-03-08T16:57:18;26.45;;;17.25;;
27758;SDS011;15148;48.972;12.794;2023-03-08T17:02:21;21.42;;;14.77;;
27758;SDS011;15148;48.972;12.794;2023-03-08T17:07:23;26.25;;;15.45;;
27758;SDS011;15148;48.972;12.794;2023-03-08T17:12:25;22.52;;;14.93;;
27758;SDS011;15148;48.972;12.794;2023-03-08T17:17:27;22.17;;;13.70;;
27758;SDS011;15148;48.972;12.794;2023-03-08T17:22:29;31.05;;;16.90;;
27758;SDS011;15148;48.972;12.794;2023-03-08T17:27:33;25.83;;;15.50;;
27758;SDS011;15148;48.972;12.794;2023-03-08T17:32:35;23.30;;;15.27;;
27758;SDS011;15148;48.972;12.794;2023-03-08T17:37:37;27.50;;;16.77;;
27758;SDS011;15148;48.972;12.794;2023-03-08T17:42:41;21.48;;;14.23;;
27758;SDS011;15148;48.972;12.794;2023-03-08T17:47:43;23.67;;;15.63;;
27758;SDS011;15148;48.972;12.794;2023-03-08T17:52:46;24.50;;;15.15;;
27758;SDS011;15148;48.972;12.794;2023-03-08T17:57:47;23.77;;;15.98;;
27758;SDS011;15148;48.972;12.794;2023-03-08T18:02:49;28.10;;;18.02;;
27758;SDS011;15148;48.972;12.794;2023-03-08T18:07:51;29.90;;;18.15;;
27758;SDS011;15148;48.972;12.794;2023-03-08T18:12:53;26.08;;;15.85;;
27758;SDS011;15148;48.972;12.794;2023-03-08T18:17:55;22.45;;;14.10;;
27758;SDS011;15148;48.972;12.794;2023-03-08T18:22:56;21.17;;;12.20;;
27758;SDS011;15148;48.972;12.794;2023-03-08T18:27:58;18.33;;;11.43;;
27758;SDS011;15148;48.972;12.794;2023-03-08T18:33:00;20.63;;;13.52;;
27758;SDS011;15148;48.972;12.794;2023-03-08T18:38:02;24.55;;;13.20;;
27758;SDS011;15148;48.972;12.794;2023-03-08T18:43:04;20.55;;;13.93;;
27758;SDS011;15148;48.972;12.794;2023-03-08T18:48:06;19.20;;;13.60;;
27758;SDS011;15148;48.972;12.794;2023-03-08T18:53:07;26.38;;;19.05;;
27758;SDS011;15148;48.972;12.794;2023-03-08T18:58:09;19.27;;;14.00;;
27758;SDS011;15148;48.972;12.794;2023-03-08T19:03:11;21.38;;;14.93;;
27758;SDS011;15148;48.972;12.794;2023-03-08T19:08:13;20.00;;;13.40;;
27758;SDS011;15148;48.972;12.794;2023-03-08T19:13:15;26.92;;;18.92;;
27758;SDS011;15148;48.972;12.794;2023-03-08T19:18:17;60.55;;;42.47;;
27758;SDS011;15148;48.972;12.794;2023-03-08T19:23:23;20.50;;;14.80;;
27758;SDS011;15148;48.972;12.794;2023-03-08T19:28:25;19.65;;;13.23;;
27758;SDS011;15148;48.972;12.794;2023-03-08T19:33:27;16.35;;;12.02;;
27758;SDS011;15148;48.972;12.794;2023-03-08T19:38:32;18.75;;;12.43;;
27758;SDS011;15148;48.972;12.794;2023-03-08T19:43:33;17.52;;;11.35;;
27758;SDS011;15148;48.972;12.794;2023-03-08T19:48:35;18.15;;;10.88;;
27758;SDS011;15148;48.972;12.794;2023-03-08T19:53:37;16.48;;;11.88;;
27758;SDS011;15148;48.972;12.794;2023-03-08T19:58:39;17.73;;;12.57;;
27758;SDS011;15148;48.972;12.794;2023-03-08T20:03:41;17.00;;;11.50;;
27758;SDS011;15148;48.972;12.794;2023-03-08T20:08:43;15.20;;;10.77;;
27758;SDS011;15148;48.972;12.794;2023-03-08T20:13:45;20.55;;;12.52;;
27758;SDS011;15148;48.972;12.794;2023-03-08T20:18:47;18.25;;;12.32;;
27758;SDS011;15148;48.972;12.794;2023-03-08T20:23:49;17.88;;;14.05;;
27758;SDS011;15148;48.972;12.794;2023-03-08T20:28:55;15.82;;;11.55;;
27758;SDS011;15148;48.972;12.794;2023-03-08T20:33:58;15.43;;;11.32;;
27758;SDS011;15148;48.972;12.794;2023-03-08T20:39:01;18.65;;;13.68;;
27758;SDS011;15148;48.972;12.794;2023-03-08T20:44:03;19.70;;;12.77;;
27758;SDS011;15148;48.972;12.794;2023-03-08T20:49:05;17.80;;;11.98;;
27758;SDS011;15148;48.972;12.794;2023-03-08T20:54:07;21.00;;;12.75;;
27758;SDS011;15148;48.972;12.794;2023-03-08T20:59:09;16.48;;;11.75;;
27758;SDS011;15148;48.972;12.794;2023-03-08T21:04:11;18.00;;;11.55;;
27758;SDS011;15148;48.972;12.794;2023-03-08T21:09:13;16.52;;;10.75;;
27758;SDS011;15148;48.972;12.794;2023-03-08T21:14:15;15.15;;;11.50;;
27758;SDS011;15148;48.972;12.794;2023-03-08T21:19:21;17.60;;;11.88;;
27758;SDS011;15148;48.972;12.794;2023-03-08T21:24:24;13.33;;;10.70;;
27758;SDS011;15148;48.972;12.794;2023-03-08T21:29:26;16.77;;;11.57;;
27758;SDS011;15148;48.972;12.794;2023-03-08T21:34:29;15.27;;;10.77;;
27758;SDS011;15148;48.972;12.794;2023-03-08T21:39:31;17.02;;;11.95;;
27758;SDS011;15148;48.972;12.794;2023-03-08T21:44:33;14.98;;;11.77;;
27758;SDS011;15148;48.972;12.794;2023-03-08T21:49:34;16.20;;;10.45;;
27758;SDS011;15148;48.972;12.794;2023-03-08T21:54:36;10.75;;;8.63;;
27758;SDS011;15148;48.972;12.794;2023-03-08T21:59:38;11.60;;;9.10;;
27758;SDS011;15148;48.972;12.794;2023-03-08T22:04:40;10.48;;;7.72;;
27758;SDS011;15148;48.972;12.794;2023-03-08T22:09:42;10.25;;;7.90;;
27758;SDS011;15148;48.972;12.794;2023-03-08T22:14:43;10.48;;;7.75;;
27758;SDS011;15148;48.972;12.794;2023-03-08T22:19:45;11.38;;;8.75;;
27758;SDS011;15148;48.972;12.794;2023-03-08T22:24:47;9.38;;;7.72;;
27758;SDS011;15148;48.972;12.794;2023-03-08T22:29:49;8.82;;;6.20;;
27758;SDS011;15148;48.972;12.794;2023-03-08T22:34:51;9.57;;;6.25;;
27758;SDS011;15148;48.972;12.794;2023-03-08T22:39:53;8.07;;;4.75;;
27758;SDS011;15148;48.972;12.794;2023-03-08T22:44:57;4.63;;;3.35;;
27758;SDS011;15148;48.972;12.794;2023-03-08T22:49:59;2.92;;;2.28;;
27758;SDS011;15148;48.972;12.794;2023-03-08T22:55:02;3.83;;;1.83;;
27758;SDS011;15148;48.972;12.794;2023-03-08T23:00:04;2.45;;;1.63;;
27758;SDS011;15148;48.972;12.794;2023-03-08T23:05:15;3.47;;;2.05;;
27758;SDS011;15148;48.972;12.794;2023-03-08T23:10:21;2.03;;;1.60;;
27758;SDS011;15148;48.972;12.794;2023-03-08T23:15:23;2.70;;;1.65;;
27758;SDS011;15148;48.972;12.794;2023-03-08T23:20:25;2.05;;;1.70;;
27758;SDS011;15148;48.972;12.794;2023-03-08T23:25:27;2.22;;;1.70;;
27758;SDS011;15148;48.972;12.794;2023-03-08T23:30:28;4.57;;;1.50;;
27758;SDS011;15148;48.972;12.794;2023-03-08T23:35:30;2.28;;;1.73;;
27758;SDS011;15148;48.972;12.794;2023-03-08T23:40:32;2.22;;;1.98;;
27758;SDS011;15148;48.972;12.794;2023-03-08T23:45:34;2.00;;;1.65;;
27758;SDS011;15148;48.972;12.794;2023-03-08T23:50:38;3.38;;;1.83;;
27758;SDS011;15148;48.972;12.794;2023-03-08T23:55:40;2.22;;;1.90;;
